Аэропорт
Владивосток (UHWW)

 UHWW / VVO
ЗЦ Хабаровск
Хабаровск (UHHH)
Хабаровск (UHHH)
 43.39900, 132.14800  / 46 ft

 UHWW 161030Z 00000MPS 9999 NSC M13/M20 Q1013 R25L/0///70 NOSIG RMK QFE759
 UHWW 152000Z 1521/1621 34003MPS 9999 SCT030 TEMPO 1521/1610 34010MPS
UHWW_aip_1709
показать схемы
Название сценария Тип сценария Flight Simulator 9 Flight Simulator X Prepar3D v2 Prepar3D v3 Prepar3D v4 xPlane
UHWW - test version for the Fly-inn only платный(+демо)
UHWW, Vladivostok 1.0.0 X-Flight бесплатный
UHWW, Vladivostok 2017 v 1.2 бесплатный
uhww-scenery-fs9-1408 бесплатный
uhww-scenery-fsx-1304 бесплатный
uhww-scenery-p3d-1502 бесплатный



2018 © VATRUS division